Terminal Aerodrome Forecast
Issued by NWS

Home | Current Version | Previous Version | Text Only | Print | Product List | Glossary On
Versions: 1 2 3 4 5 6 7 8 9 10 11 12
000
FTUS43 KFGF 251100
TAFTVF
TAF
KTVF 251120Z 2512/2612 17007KT P6SM BKN250
     FM251600 22010KT P6SM BKN050
     FM252100 28011KT P6SM SKC
      AMD LTD TO CLD VIS AND WIND=

USA.gov is the U.S. government's official web portal to all federal, state and local government web resources and services.